sensor_id;sensor_type;location;lat;lon;timestamp;P1;durP1;ratioP1;P2;durP2;ratioP2
13457;SDS011;6801;53.018;11.560;2022-07-23T00:00:39;6.55;;;2.80;;
13457;SDS011;6801;53.018;11.560;2022-07-23T00:03:06;5.60;;;2.03;;
13457;SDS011;6801;53.018;11.560;2022-07-23T00:05:33;4.68;;;1.90;;
13457;SDS011;6801;53.018;11.560;2022-07-23T00:08:01;5.47;;;1.92;;
13457;SDS011;6801;53.018;11.560;2022-07-23T00:10:28;6.35;;;2.38;;
13457;SDS011;6801;53.018;11.560;2022-07-23T00:12:55;9.57;;;2.10;;
13457;SDS011;6801;53.018;11.560;2022-07-23T00:15:22;4.78;;;2.00;;
13457;SDS011;6801;53.018;11.560;2022-07-23T00:17:49;5.70;;;2.10;;
13457;SDS011;6801;53.018;11.560;2022-07-23T00:20:17;6.65;;;2.60;;
13457;SDS011;6801;53.018;11.560;2022-07-23T00:22:47;6.72;;;2.42;;
13457;SDS011;6801;53.018;11.560;2022-07-23T00:25:15;5.57;;;2.30;;
13457;SDS011;6801;53.018;11.560;2022-07-23T00:27:42;5.82;;;2.20;;
13457;SDS011;6801;53.018;11.560;2022-07-23T00:30:10;6.30;;;2.08;;
13457;SDS011;6801;53.018;11.560;2022-07-23T00:32:44;4.82;;;2.03;;
13457;SDS011;6801;53.018;11.560;2022-07-23T00:35:12;6.53;;;1.92;;
13457;SDS011;6801;53.018;11.560;2022-07-23T00:37:39;5.93;;;2.05;;
13457;SDS011;6801;53.018;11.560;2022-07-23T00:40:07;6.20;;;2.45;;
13457;SDS011;6801;53.018;11.560;2022-07-23T00:42:38;4.35;;;2.10;;
13457;SDS011;6801;53.018;11.560;2022-07-23T00:45:05;6.15;;;2.13;;
13457;SDS011;6801;53.018;11.560;2022-07-23T00:47:33;5.13;;;1.95;;
13457;SDS011;6801;53.018;11.560;2022-07-23T00:50:00;6.65;;;2.25;;
13457;SDS011;6801;53.018;11.560;2022-07-23T00:52:28;3.83;;;1.75;;
13457;SDS011;6801;53.018;11.560;2022-07-23T00:54:56;7.63;;;2.20;;
13457;SDS011;6801;53.018;11.560;2022-07-23T00:57:23;4.78;;;2.00;;
13457;SDS011;6801;53.018;11.560;2022-07-23T00:59:52;4.90;;;1.98;;
13457;SDS011;6801;53.018;11.560;2022-07-23T01:02:18;8.70;;;2.05;;
13457;SDS011;6801;53.018;11.560;2022-07-23T01:04:45;3.47;;;2.55;;
13457;SDS011;6801;53.018;11.560;2022-07-23T01:07:13;5.40;;;2.20;;
13457;SDS011;6801;53.018;11.560;2022-07-23T01:09:40;5.18;;;2.55;;
13457;SDS011;6801;53.018;11.560;2022-07-23T01:12:07;6.28;;;2.20;;
13457;SDS011;6801;53.018;11.560;2022-07-23T01:14:34;5.70;;;1.80;;
13457;SDS011;6801;53.018;11.560;2022-07-23T01:17:03;5.88;;;2.13;;
13457;SDS011;6801;53.018;11.560;2022-07-23T01:19:30;7.20;;;2.15;;
13457;SDS011;6801;53.018;11.560;2022-07-23T01:21:58;6.45;;;2.47;;
13457;SDS011;6801;53.018;11.560;2022-07-23T01:24:29;5.93;;;2.38;;
13457;SDS011;6801;53.018;11.560;2022-07-23T01:27:02;5.40;;;2.13;;
13457;SDS011;6801;53.018;11.560;2022-07-23T01:29:32;5.38;;;2.15;;
13457;SDS011;6801;53.018;11.560;2022-07-23T01:32:03;4.93;;;1.85;;
13457;SDS011;6801;53.018;11.560;2022-07-23T01:34:31;7.28;;;2.45;;
13457;SDS011;6801;53.018;11.560;2022-07-23T01:36:58;3.53;;;2.60;;
13457;SDS011;6801;53.018;11.560;2022-07-23T01:39:25;4.50;;;1.73;;
13457;SDS011;6801;53.018;11.560;2022-07-23T01:41:54;4.18;;;2.20;;
13457;SDS011;6801;53.018;11.560;2022-07-23T01:44:22;6.27;;;2.27;;
13457;SDS011;6801;53.018;11.560;2022-07-23T01:46:48;4.38;;;2.30;;
13457;SDS011;6801;53.018;11.560;2022-07-23T01:49:17;6.25;;;2.40;;
13457;SDS011;6801;53.018;11.560;2022-07-23T01:52:03;6.28;;;2.35;;
13457;SDS011;6801;53.018;11.560;2022-07-23T01:54:47;6.18;;;2.45;;
13457;SDS011;6801;53.018;11.560;2022-07-23T02:01:04;6.25;;;2.28;;
13457;SDS011;6801;53.018;11.560;2022-07-23T02:03:31;4.03;;;2.08;;
13457;SDS011;6801;53.018;11.560;2022-07-23T02:05:58;4.40;;;2.15;;
13457;SDS011;6801;53.018;11.560;2022-07-23T02:08:27;4.38;;;2.40;;
13457;SDS011;6801;53.018;11.560;2022-07-23T02:10:54;4.13;;;2.42;;
13457;SDS011;6801;53.018;11.560;2022-07-23T02:13:21;6.85;;;2.38;;
13457;SDS011;6801;53.018;11.560;2022-07-23T02:15:48;4.82;;;2.42;;
13457;SDS011;6801;53.018;11.560;2022-07-23T02:18:17;6.22;;;2.55;;
13457;SDS011;6801;53.018;11.560;2022-07-23T02:20:44;5.60;;;2.35;;
13457;SDS011;6801;53.018;11.560;2022-07-23T02:23:11;4.72;;;2.17;;
13457;SDS011;6801;53.018;11.560;2022-07-23T02:25:38;4.20;;;2.10;;
13457;SDS011;6801;53.018;11.560;2022-07-23T02:28:05;5.25;;;2.70;;
13457;SDS011;6801;53.018;11.560;2022-07-23T02:30:32;5.38;;;2.35;;
13457;SDS011;6801;53.018;11.560;2022-07-23T02:33:00;6.00;;;2.35;;
13457;SDS011;6801;53.018;11.560;2022-07-23T02:35:28;4.05;;;2.30;;
13457;SDS011;6801;53.018;11.560;2022-07-23T02:37:58;4.55;;;2.42;;
13457;SDS011;6801;53.018;11.560;2022-07-23T02:40:26;5.13;;;2.50;;
13457;SDS011;6801;53.018;11.560;2022-07-23T02:42:53;3.67;;;2.42;;
13457;SDS011;6801;53.018;11.560;2022-07-23T02:45:20;6.93;;;2.53;;
13457;SDS011;6801;53.018;11.560;2022-07-23T02:47:48;7.28;;;2.60;;
13457;SDS011;6801;53.018;11.560;2022-07-23T02:50:15;6.07;;;2.65;;
13457;SDS011;6801;53.018;11.560;2022-07-23T02:52:44;3.95;;;2.50;;
13457;SDS011;6801;53.018;11.560;2022-07-23T02:55:11;4.18;;;2.63;;
13457;SDS011;6801;53.018;11.560;2022-07-23T02:57:38;5.60;;;2.83;;
13457;SDS011;6801;53.018;11.560;2022-07-23T03:00:05;4.85;;;2.72;;
13457;SDS011;6801;53.018;11.560;2022-07-23T03:02:33;8.65;;;2.80;;
13457;SDS011;6801;53.018;11.560;2022-07-23T03:05:00;4.82;;;2.60;;
13457;SDS011;6801;53.018;11.560;2022-07-23T03:07:28;9.88;;;2.58;;
13457;SDS011;6801;53.018;11.560;2022-07-23T03:09:56;13.35;;;3.50;;
13457;SDS011;6801;53.018;11.560;2022-07-23T03:12:23;3.88;;;2.60;;
13457;SDS011;6801;53.018;11.560;2022-07-23T03:14:50;6.80;;;2.70;;
13457;SDS011;6801;53.018;11.560;2022-07-23T03:17:17;7.57;;;3.08;;
13457;SDS011;6801;53.018;11.560;2022-07-23T03:19:46;4.55;;;2.90;;
13457;SDS011;6801;53.018;11.560;2022-07-23T03:22:13;4.90;;;2.97;;
13457;SDS011;6801;53.018;11.560;2022-07-23T03:24:39;7.85;;;3.65;;
13457;SDS011;6801;53.018;11.560;2022-07-23T03:27:34;8.40;;;3.60;;
13457;SDS011;6801;53.018;11.560;2022-07-23T03:30:01;18.60;;;11.60;;
13457;SDS011;6801;53.018;11.560;2022-07-23T03:32:28;15.02;;;8.98;;
13457;SDS011;6801;53.018;11.560;2022-07-23T03:34:56;16.88;;;8.50;;
13457;SDS011;6801;53.018;11.560;2022-07-23T03:37:24;11.20;;;7.70;;
13457;SDS011;6801;53.018;11.560;2022-07-23T03:39:51;12.18;;;7.78;;
13457;SDS011;6801;53.018;11.560;2022-07-23T03:42:18;12.63;;;7.75;;
13457;SDS011;6801;53.018;11.560;2022-07-23T03:44:47;18.58;;;7.20;;
13457;SDS011;6801;53.018;11.560;2022-07-23T03:47:14;6.15;;;4.32;;
13457;SDS011;6801;53.018;11.560;2022-07-23T03:49:42;7.05;;;4.38;;
13457;SDS011;6801;53.018;11.560;2022-07-23T03:52:09;9.25;;;4.68;;
13457;SDS011;6801;53.018;11.560;2022-07-23T03:54:36;7.88;;;4.40;;
13457;SDS011;6801;53.018;11.560;2022-07-23T03:57:03;9.60;;;4.97;;
13457;SDS011;6801;53.018;11.560;2022-07-23T03:59:30;6.82;;;4.57;;
13457;SDS011;6801;53.018;11.560;2022-07-23T04:01:59;9.75;;;3.97;;
13457;SDS011;6801;53.018;11.560;2022-07-23T04:04:26;6.68;;;3.92;;
13457;SDS011;6801;53.018;11.560;2022-07-23T04:06:54;7.90;;;4.63;;
13457;SDS011;6801;53.018;11.560;2022-07-23T04:09:21;10.73;;;4.15;;
13457;SDS011;6801;53.018;11.560;2022-07-23T04:11:48;7.65;;;3.85;;
13457;SDS011;6801;53.018;11.560;2022-07-23T04:14:16;6.20;;;3.45;;
13457;SDS011;6801;53.018;11.560;2022-07-23T04:16:43;7.15;;;3.35;;
13457;SDS011;6801;53.018;11.560;2022-07-23T04:19:11;7.32;;;2.97;;
13457;SDS011;6801;53.018;11.560;2022-07-23T04:21:51;5.55;;;3.38;;
13457;SDS011;6801;53.018;11.560;2022-07-23T04:24:18;6.68;;;3.63;;
13457;SDS011;6801;53.018;11.560;2022-07-23T04:26:45;6.35;;;3.67;;
13457;SDS011;6801;53.018;11.560;2022-07-23T04:29:13;8.50;;;3.65;;
13457;SDS011;6801;53.018;11.560;2022-07-23T04:31:39;4.70;;;3.25;;
13457;SDS011;6801;53.018;11.560;2022-07-23T04:34:07;5.95;;;3.25;;
13457;SDS011;6801;53.018;11.560;2022-07-23T04:36:35;6.45;;;3.33;;
13457;SDS011;6801;53.018;11.560;2022-07-23T04:39:02;5.57;;;3.70;;
13457;SDS011;6801;53.018;11.560;2022-07-23T04:41:30;8.18;;;3.63;;
13457;SDS011;6801;53.018;11.560;2022-07-23T04:43:57;7.70;;;3.13;;
13457;SDS011;6801;53.018;11.560;2022-07-23T04:46:24;6.88;;;3.33;;
13457;SDS011;6801;53.018;11.560;2022-07-23T04:48:51;6.63;;;3.40;;
13457;SDS011;6801;53.018;11.560;2022-07-23T04:51:18;10.80;;;3.13;;
13457;SDS011;6801;53.018;11.560;2022-07-23T04:53:47;5.35;;;3.05;;
13457;SDS011;6801;53.018;11.560;2022-07-23T04:56:14;6.80;;;3.25;;
13457;SDS011;6801;53.018;11.560;2022-07-23T04:58:41;8.77;;;4.20;;
13457;SDS011;6801;53.018;11.560;2022-07-23T05:01:08;8.00;;;3.55;;
13457;SDS011;6801;53.018;11.560;2022-07-23T05:03:36;6.50;;;3.22;;
13457;SDS011;6801;53.018;11.560;2022-07-23T05:06:03;7.97;;;3.33;;
13457;SDS011;6801;53.018;11.560;2022-07-23T05:08:30;5.78;;;2.97;;
13457;SDS011;6801;53.018;11.560;2022-07-23T05:10:59;6.10;;;3.70;;
13457;SDS011;6801;53.018;11.560;2022-07-23T05:13:27;7.45;;;2.85;;
13457;SDS011;6801;53.018;11.560;2022-07-23T05:15:55;4.97;;;2.58;;
13457;SDS011;6801;53.018;11.560;2022-07-23T05:18:23;6.97;;;3.17;;
13457;SDS011;6801;53.018;11.560;2022-07-23T05:20:50;7.97;;;3.55;;
13457;SDS011;6801;53.018;11.560;2022-07-23T05:23:19;7.53;;;3.30;;
13457;SDS011;6801;53.018;11.560;2022-07-23T05:25:48;3.83;;;2.95;;
13457;SDS011;6801;53.018;11.560;2022-07-23T05:28:17;4.93;;;2.70;;
13457;SDS011;6801;53.018;11.560;2022-07-23T05:30:44;4.30;;;2.65;;
13457;SDS011;6801;53.018;11.560;2022-07-23T05:33:13;6.32;;;3.10;;
13457;SDS011;6801;53.018;11.560;2022-07-23T05:35:41;9.02;;;2.78;;
13457;SDS011;6801;53.018;11.560;2022-07-23T05:38:28;4.40;;;2.42;;
13457;SDS011;6801;53.018;11.560;2022-07-23T05:40:57;4.70;;;2.35;;
13457;SDS011;6801;53.018;11.560;2022-07-23T05:43:26;4.90;;;2.97;;
13457;SDS011;6801;53.018;11.560;2022-07-23T05:45:55;7.00;;;2.25;;
13457;SDS011;6801;53.018;11.560;2022-07-23T05:48:22;4.95;;;2.05;;
13457;SDS011;6801;53.018;11.560;2022-07-23T05:51:00;3.85;;;2.10;;
13457;SDS011;6801;53.018;11.560;2022-07-23T05:53:30;3.58;;;2.15;;
13457;SDS011;6801;53.018;11.560;2022-07-23T05:56:04;3.50;;;2.05;;
13457;SDS011;6801;53.018;11.560;2022-07-23T05:58:32;5.65;;;2.45;;
13457;SDS011;6801;53.018;11.560;2022-07-23T06:01:00;6.47;;;2.30;;
13457;SDS011;6801;53.018;11.560;2022-07-23T06:03:32;4.88;;;2.05;;
13457;SDS011;6801;53.018;11.560;2022-07-23T06:05:59;6.22;;;2.45;;
13457;SDS011;6801;53.018;11.560;2022-07-23T06:08:26;5.57;;;2.53;;
13457;SDS011;6801;53.018;11.560;2022-07-23T06:10:53;3.30;;;1.83;;
13457;SDS011;6801;53.018;11.560;2022-07-23T06:13:20;3.83;;;2.25;;
13457;SDS011;6801;53.018;11.560;2022-07-23T06:15:49;6.15;;;2.92;;
13457;SDS011;6801;53.018;11.560;2022-07-23T06:18:16;5.72;;;2.05;;
13457;SDS011;6801;53.018;11.560;2022-07-23T06:20:43;4.70;;;2.13;;
13457;SDS011;6801;53.018;11.560;2022-07-23T06:23:10;3.35;;;2.15;;
13457;SDS011;6801;53.018;11.560;2022-07-23T06:25:38;3.47;;;2.05;;
13457;SDS011;6801;53.018;11.560;2022-07-23T06:28:05;5.50;;;2.25;;
13457;SDS011;6801;53.018;11.560;2022-07-23T06:30:32;3.10;;;1.80;;
13457;SDS011;6801;53.018;11.560;2022-07-23T06:33:03;2.40;;;1.50;;
13457;SDS011;6801;53.018;11.560;2022-07-23T06:35:30;4.25;;;1.67;;
13457;SDS011;6801;53.018;11.560;2022-07-23T06:37:58;4.22;;;1.85;;
13457;SDS011;6801;53.018;11.560;2022-07-23T06:40:26;6.40;;;1.70;;
13457;SDS011;6801;53.018;11.560;2022-07-23T06:42:53;3.00;;;1.75;;
13457;SDS011;6801;53.018;11.560;2022-07-23T06:45:22;6.50;;;2.38;;
13457;SDS011;6801;53.018;11.560;2022-07-23T06:47:49;4.80;;;2.17;;
13457;SDS011;6801;53.018;11.560;2022-07-23T06:50:19;3.78;;;1.70;;
13457;SDS011;6801;53.018;11.560;2022-07-23T06:52:48;3.35;;;1.38;;
13457;SDS011;6801;53.018;11.560;2022-07-23T06:55:15;4.75;;;1.35;;
13457;SDS011;6801;53.018;11.560;2022-07-23T06:57:44;3.63;;;1.40;;
13457;SDS011;6801;53.018;11.560;2022-07-23T07:00:11;2.80;;;1.25;;
13457;SDS011;6801;53.018;11.560;2022-07-23T07:02:38;4.40;;;1.55;;
13457;SDS011;6801;53.018;11.560;2022-07-23T07:05:05;5.50;;;1.45;;
13457;SDS011;6801;53.018;11.560;2022-07-23T07:07:34;2.67;;;1.38;;
13457;SDS011;6801;53.018;11.560;2022-07-23T07:10:01;4.22;;;1.92;;
13457;SDS011;6801;53.018;11.560;2022-07-23T07:12:29;4.38;;;1.65;;
13457;SDS011;6801;53.018;11.560;2022-07-23T07:14:56;5.20;;;2.03;;
13457;SDS011;6801;53.018;11.560;2022-07-23T07:17:23;3.67;;;1.33;;
13457;SDS011;6801;53.018;11.560;2022-07-23T07:19:50;2.63;;;0.80;;
13457;SDS011;6801;53.018;11.560;2022-07-23T07:22:17;1.73;;;0.82;;
13457;SDS011;6801;53.018;11.560;2022-07-23T07:24:45;2.65;;;0.80;;
13457;SDS011;6801;53.018;11.560;2022-07-23T07:27:12;3.85;;;1.38;;
13457;SDS011;6801;53.018;11.560;2022-07-23T07:29:39;3.75;;;0.90;;
13457;SDS011;6801;53.018;11.560;2022-07-23T07:32:06;1.92;;;0.85;;
13457;SDS011;6801;53.018;11.560;2022-07-23T07:34:33;2.58;;;1.00;;
13457;SDS011;6801;53.018;11.560;2022-07-23T07:37:00;3.97;;;1.20;;
13457;SDS011;6801;53.018;11.560;2022-07-23T07:39:28;3.22;;;0.88;;
13457;SDS011;6801;53.018;11.560;2022-07-23T07:41:56;3.13;;;0.75;;
13457;SDS011;6801;53.018;11.560;2022-07-23T07:44:23;2.38;;;0.85;;
13457;SDS011;6801;53.018;11.560;2022-07-23T07:46:50;2.50;;;0.80;;
13457;SDS011;6801;53.018;11.560;2022-07-23T07:49:18;4.68;;;0.70;;
13457;SDS011;6801;53.018;11.560;2022-07-23T07:51:45;5.07;;;0.90;;
13457;SDS011;6801;53.018;11.560;2022-07-23T07:54:12;3.47;;;0.88;;
13457;SDS011;6801;53.018;11.560;2022-07-23T07:56:39;2.22;;;0.65;;
13457;SDS011;6801;53.018;11.560;2022-07-23T07:59:07;1.77;;;0.70;;
13457;SDS011;6801;53.018;11.560;2022-07-23T08:01:34;1.42;;;0.60;;
13457;SDS011;6801;53.018;11.560;2022-07-23T08:04:01;4.22;;;0.82;;
13457;SDS011;6801;53.018;11.560;2022-07-23T08:06:28;3.83;;;1.00;;
13457;SDS011;6801;53.018;11.560;2022-07-23T08:08:55;3.42;;;1.10;;
13457;SDS011;6801;53.018;11.560;2022-07-23T08:11:22;2.03;;;1.00;;
13457;SDS011;6801;53.018;11.560;2022-07-23T08:13:49;3.85;;;1.48;;
13457;SDS011;6801;53.018;11.560;2022-07-23T08:16:17;3.25;;;1.35;;
13457;SDS011;6801;53.018;11.560;2022-07-23T08:18:44;5.43;;;1.27;;
13457;SDS011;6801;53.018;11.560;2022-07-23T08:21:11;2.33;;;0.93;;
13457;SDS011;6801;53.018;11.560;2022-07-23T08:23:38;3.33;;;1.05;;
13457;SDS011;6801;53.018;11.560;2022-07-23T08:26:05;5.70;;;1.02;;
13457;SDS011;6801;53.018;11.560;2022-07-23T08:28:32;3.17;;;0.90;;
13457;SDS011;6801;53.018;11.560;2022-07-23T08:30:59;3.33;;;0.90;;
13457;SDS011;6801;53.018;11.560;2022-07-23T08:33:28;4.50;;;0.82;;
13457;SDS011;6801;53.018;11.560;2022-07-23T08:35:55;2.70;;;0.90;;
13457;SDS011;6801;53.018;11.560;2022-07-23T08:38:22;3.88;;;0.80;;
13457;SDS011;6801;53.018;11.560;2022-07-23T08:40:50;4.72;;;0.73;;
13457;SDS011;6801;53.018;11.560;2022-07-23T08:43:19;2.88;;;0.80;;
13457;SDS011;6801;53.018;11.560;2022-07-23T08:45:48;2.97;;;0.70;;
13457;SDS011;6801;53.018;11.560;2022-07-23T08:48:16;3.47;;;0.73;;
13457;SDS011;6801;53.018;11.560;2022-07-23T08:50:47;2.25;;;0.60;;
13457;SDS011;6801;53.018;11.560;2022-07-23T08:53:16;4.63;;;0.98;;
13457;SDS011;6801;53.018;11.560;2022-07-23T08:55:44;3.03;;;0.60;;
13457;SDS011;6801;53.018;11.560;2022-07-23T08:58:12;4.22;;;0.80;;
13457;SDS011;6801;53.018;11.560;2022-07-23T09:00:40;2.60;;;0.47;;
13457;SDS011;6801;53.018;11.560;2022-07-23T09:03:11;2.63;;;0.53;;
13457;SDS011;6801;53.018;11.560;2022-07-23T09:05:42;3.75;;;0.80;;
13457;SDS011;6801;53.018;11.560;2022-07-23T09:08:12;2.30;;;0.75;;
13457;SDS011;6801;53.018;11.560;2022-07-23T09:10:47;0.77;;;0.35;;
13457;SDS011;6801;53.018;11.560;2022-07-23T09:16:06;2.85;;;0.70;;
13457;SDS011;6801;53.018;11.560;2022-07-23T09:18:39;3.85;;;0.73;;
13457;SDS011;6801;53.018;11.560;2022-07-23T09:21:13;1.85;;;0.40;;
13457;SDS011;6801;53.018;11.560;2022-07-23T09:23:44;3.33;;;0.70;;
13457;SDS011;6801;53.018;11.560;2022-07-23T09:26:17;1.63;;;0.50;;
13457;SDS011;6801;53.018;11.560;2022-07-23T09:28:53;2.08;;;0.32;;
13457;SDS011;6801;53.018;11.560;2022-07-23T09:31:22;2.42;;;0.45;;
13457;SDS011;6801;53.018;11.560;2022-07-23T09:33:50;1.60;;;0.40;;
13457;SDS011;6801;53.018;11.560;2022-07-23T09:36:26;4.25;;;0.93;;
13457;SDS011;6801;53.018;11.560;2022-07-23T09:38:56;2.22;;;0.47;;
13457;SDS011;6801;53.018;11.560;2022-07-23T09:41:23;2.17;;;0.38;;
13457;SDS011;6801;53.018;11.560;2022-07-23T09:43:56;1.95;;;0.57;;
13457;SDS011;6801;53.018;11.560;2022-07-23T09:46:24;1.85;;;0.60;;
13457;SDS011;6801;53.018;11.560;2022-07-23T09:48:52;2.88;;;0.55;;
13457;SDS011;6801;53.018;11.560;2022-07-23T09:51:22;3.83;;;0.55;;
13457;SDS011;6801;53.018;11.560;2022-07-23T09:54:01;2.50;;;0.65;;
13457;SDS011;6801;53.018;11.560;2022-07-23T09:56:28;1.98;;;0.50;;
13457;SDS011;6801;53.018;11.560;2022-07-23T09:58:56;1.33;;;0.40;;
13457;SDS011;6801;53.018;11.560;2022-07-23T10:01:30;1.30;;;0.45;;
13457;SDS011;6801;53.018;11.560;2022-07-23T10:03:58;1.50;;;0.47;;
13457;SDS011;6801;53.018;11.560;2022-07-23T10:06:52;1.80;;;0.50;;
13457;SDS011;6801;53.018;11.560;2022-07-23T10:09:41;1.67;;;0.40;;
13457;SDS011;6801;53.018;11.560;2022-07-23T10:12:28;2.20;;;0.65;;
13457;SDS011;6801;53.018;11.560;2022-07-23T10:15:14;1.60;;;0.40;;
13457;SDS011;6801;53.018;11.560;2022-07-23T10:17:42;0.63;;;0.30;;
13457;SDS011;6801;53.018;11.560;2022-07-23T10:20:09;1.20;;;0.32;;
13457;SDS011;6801;53.018;11.560;2022-07-23T10:22:37;1.65;;;0.43;;
13457;SDS011;6801;53.018;11.560;2022-07-23T10:25:12;1.80;;;0.50;;
13457;SDS011;6801;53.018;11.560;2022-07-23T10:28:04;1.30;;;0.40;;
13457;SDS011;6801;53.018;11.560;2022-07-23T10:30:40;4.57;;;0.60;;
13457;SDS011;6801;53.018;11.560;2022-07-23T10:33:18;6.57;;;1.05;;
13457;SDS011;6801;53.018;11.560;2022-07-23T10:35:54;1.10;;;0.32;;
13457;SDS011;6801;53.018;11.560;2022-07-23T10:38:30;2.38;;;0.50;;
13457;SDS011;6801;53.018;11.560;2022-07-23T10:41:03;4.40;;;1.00;;
13457;SDS011;6801;53.018;11.560;2022-07-23T10:43:31;1.88;;;0.70;;
13457;SDS011;6801;53.018;11.560;2022-07-23T10:54:49;2.25;;;0.60;;
13457;SDS011;6801;53.018;11.560;2022-07-23T10:57:20;9.60;;;1.30;;
13457;SDS011;6801;53.018;11.560;2022-07-23T11:02:56;4.70;;;1.20;;
13457;SDS011;6801;53.018;11.560;2022-07-23T11:05:25;2.30;;;1.00;;
13457;SDS011;6801;53.018;11.560;2022-07-23T11:10:51;5.90;;;1.08;;
13457;SDS011;6801;53.018;11.560;2022-07-23T11:13:38;1.40;;;0.60;;
13457;SDS011;6801;53.018;11.560;2022-07-23T11:16:14;2.72;;;0.70;;
13457;SDS011;6801;53.018;11.560;2022-07-23T11:21:45;4.25;;;1.15;;
13457;SDS011;6801;53.018;11.560;2022-07-23T11:24:15;3.80;;;0.82;;
13457;SDS011;6801;53.018;11.560;2022-07-23T11:26:54;3.47;;;1.05;;
13457;SDS011;6801;53.018;11.560;2022-07-23T11:29:43;1.92;;;1.17;;
13457;SDS011;6801;53.018;11.560;2022-07-23T11:32:30;1.90;;;0.88;;
13457;SDS011;6801;53.018;11.560;2022-07-23T11:35:00;1.50;;;0.90;;
13457;SDS011;6801;53.018;11.560;2022-07-23T11:37:32;3.03;;;1.02;;
13457;SDS011;6801;53.018;11.560;2022-07-23T11:40:01;2.50;;;1.27;;
13457;SDS011;6801;53.018;11.560;2022-07-23T11:42:31;2.65;;;0.68;;
13457;SDS011;6801;53.018;11.560;2022-07-23T11:44:59;2.17;;;0.80;;
13457;SDS011;6801;53.018;11.560;2022-07-23T11:47:27;1.52;;;0.60;;
13457;SDS011;6801;53.018;11.560;2022-07-23T11:49:54;1.05;;;0.60;;
13457;SDS011;6801;53.018;11.560;2022-07-23T11:52:23;0.85;;;0.55;;
13457;SDS011;6801;53.018;11.560;2022-07-23T11:54:52;2.03;;;0.85;;
13457;SDS011;6801;53.018;11.560;2022-07-23T13:08:45;1.60;;;0.60;;
13457;SDS011;6801;53.018;11.560;2022-07-23T13:11:13;0.45;;;0.32;;
13457;SDS011;6801;53.018;11.560;2022-07-23T13:13:40;4.22;;;0.60;;
13457;SDS011;6801;53.018;11.560;2022-07-23T13:16:08;5.80;;;0.70;;
13457;SDS011;6801;53.018;11.560;2022-07-23T13:18:36;4.63;;;0.60;;
13457;SDS011;6801;53.018;11.560;2022-07-23T13:21:03;0.95;;;0.50;;
13457;SDS011;6801;53.018;11.560;2022-07-23T13:23:30;0.90;;;0.40;;
13457;SDS011;6801;53.018;11.560;2022-07-23T13:25:59;1.70;;;0.40;;
13457;SDS011;6801;53.018;11.560;2022-07-23T13:28:26;0.75;;;0.30;;
13457;SDS011;6801;53.018;11.560;2022-07-23T13:30:55;1.80;;;0.20;;
13457;SDS011;6801;53.018;11.560;2022-07-23T13:33:23;0.90;;;0.52;;
13457;SDS011;6801;53.018;11.560;2022-07-23T13:35:51;1.15;;;0.35;;
13457;SDS011;6801;53.018;11.560;2022-07-23T13:38:20;0.75;;;0.40;;
13457;SDS011;6801;53.018;11.560;2022-07-23T13:40:49;0.43;;;0.20;;
13457;SDS011;6801;53.018;11.560;2022-07-23T13:43:19;0.22;;;0.10;;
13457;SDS011;6801;53.018;11.560;2022-07-23T13:45:47;3.45;;;0.20;;
13457;SDS011;6801;53.018;11.560;2022-07-23T13:48:14;1.05;;;0.20;;
13457;SDS011;6801;53.018;11.560;2022-07-23T13:50:42;0.85;;;0.30;;
13457;SDS011;6801;53.018;11.560;2022-07-23T13:53:10;1.50;;;0.30;;
13457;SDS011;6801;53.018;11.560;2022-07-23T13:55:39;1.38;;;0.20;;
13457;SDS011;6801;53.018;11.560;2022-07-23T13:58:07;0.85;;;0.30;;
13457;SDS011;6801;53.018;11.560;2022-07-23T14:00:37;1.60;;;0.30;;
13457;SDS011;6801;53.018;11.560;2022-07-23T14:03:08;2.28;;;0.20;;
13457;SDS011;6801;53.018;11.560;2022-07-23T14:05:36;0.93;;;0.30;;
13457;SDS011;6801;53.018;11.560;2022-07-23T14:08:03;1.42;;;0.20;;
13457;SDS011;6801;53.018;11.560;2022-07-23T14:10:30;1.10;;;0.30;;
13457;SDS011;6801;53.018;11.560;2022-07-23T14:12:57;0.75;;;0.20;;
13457;SDS011;6801;53.018;11.560;2022-07-23T14:15:25;1.00;;;0.30;;
13457;SDS011;6801;53.018;11.560;2022-07-23T14:17:54;0.90;;;0.20;;
13457;SDS011;6801;53.018;11.560;2022-07-23T14:20:22;0.32;;;0.15;;
13457;SDS011;6801;53.018;11.560;2022-07-23T14:22:50;1.45;;;0.30;;
13457;SDS011;6801;53.018;11.560;2022-07-23T14:25:18;0.82;;;0.20;;
13457;SDS011;6801;53.018;11.560;2022-07-23T14:27:45;2.08;;;0.20;;
13457;SDS011;6801;53.018;11.560;2022-07-23T14:30:12;0.60;;;0.10;;
13457;SDS011;6801;53.018;11.560;2022-07-23T14:32:40;1.23;;;0.30;;
13457;SDS011;6801;53.018;11.560;2022-07-23T14:35:09;0.30;;;0.20;;
13457;SDS011;6801;53.018;11.560;2022-07-23T14:37:36;0.75;;;0.32;;
13457;SDS011;6801;53.018;11.560;2022-07-23T14:40:05;0.65;;;0.20;;
13457;SDS011;6801;53.018;11.560;2022-07-23T14:42:33;0.90;;;0.20;;
13457;SDS011;6801;53.018;11.560;2022-07-23T14:45:00;0.50;;;0.22;;
13457;SDS011;6801;53.018;11.560;2022-07-23T14:47:27;0.68;;;0.15;;
13457;SDS011;6801;53.018;11.560;2022-07-23T14:49:54;1.13;;;0.40;;
13457;SDS011;6801;53.018;11.560;2022-07-23T14:52:23;0.32;;;0.20;;
13457;SDS011;6801;53.018;11.560;2022-07-23T14:54:50;0.50;;;0.20;;
13457;SDS011;6801;53.018;11.560;2022-07-23T14:57:17;0.52;;;0.10;;
13457;SDS011;6801;53.018;11.560;2022-07-23T14:59:44;0.32;;;0.17;;
13457;SDS011;6801;53.018;11.560;2022-07-23T15:02:11;1.58;;;0.20;;
13457;SDS011;6801;53.018;11.560;2022-07-23T15:04:38;1.33;;;0.13;;
13457;SDS011;6801;53.018;11.560;2022-07-23T15:07:05;2.40;;;0.40;;
13457;SDS011;6801;53.018;11.560;2022-07-23T15:09:34;2.42;;;0.30;;
13457;SDS011;6801;53.018;11.560;2022-07-23T15:12:01;2.58;;;0.38;;
13457;SDS011;6801;53.018;11.560;2022-07-23T15:14:28;0.15;;;0.00;;
13457;SDS011;6801;53.018;11.560;2022-07-23T15:16:55;0.38;;;0.20;;
13457;SDS011;6801;53.018;11.560;2022-07-23T15:19:22;2.42;;;0.30;;
13457;SDS011;6801;53.018;11.560;2022-07-23T15:21:49;0.70;;;0.20;;
13457;SDS011;6801;53.018;11.560;2022-07-23T15:24:16;1.33;;;0.32;;
13457;SDS011;6801;53.018;11.560;2022-07-23T15:26:45;0.10;;;0.10;;
13457;SDS011;6801;53.018;11.560;2022-07-23T15:29:12;0.55;;;0.10;;
13457;SDS011;6801;53.018;11.560;2022-07-23T15:31:39;1.80;;;0.20;;
13457;SDS011;6801;53.018;11.560;2022-07-23T15:34:06;0.30;;;0.13;;
13457;SDS011;6801;53.018;11.560;2022-07-23T15:36:33;0.43;;;0.13;;
13457;SDS011;6801;53.018;11.560;2022-07-23T15:39:00;1.00;;;0.20;;
13457;SDS011;6801;53.018;11.560;2022-07-23T15:41:27;1.23;;;0.20;;
13457;SDS011;6801;53.018;11.560;2022-07-23T15:43:55;2.30;;;0.20;;
13457;SDS011;6801;53.018;11.560;2022-07-23T15:46:23;1.58;;;0.28;;
13457;SDS011;6801;53.018;11.560;2022-07-23T15:48:51;1.25;;;0.30;;
13457;SDS011;6801;53.018;11.560;2022-07-23T15:51:18;1.45;;;0.10;;
13457;SDS011;6801;53.018;11.560;2022-07-23T15:53:45;0.22;;;0.15;;
13457;SDS011;6801;53.018;11.560;2022-07-23T15:56:12;1.08;;;0.20;;
13457;SDS011;6801;53.018;11.560;2022-07-23T15:58:39;1.27;;;0.20;;
13457;SDS011;6801;53.018;11.560;2022-07-23T16:01:07;1.88;;;0.10;;
13457;SDS011;6801;53.018;11.560;2022-07-23T16:03:34;1.25;;;0.30;;
13457;SDS011;6801;53.018;11.560;2022-07-23T16:06:02;1.23;;;0.30;;
13457;SDS011;6801;53.018;11.560;2022-07-23T16:08:30;0.88;;;0.20;;
13457;SDS011;6801;53.018;11.560;2022-07-23T16:10:57;0.00;;;0.00;;
13457;SDS011;6801;53.018;11.560;2022-07-23T16:13:24;0.57;;;0.10;;
13457;SDS011;6801;53.018;11.560;2022-07-23T16:15:52;1.35;;;0.10;;
13457;SDS011;6801;53.018;11.560;2022-07-23T16:18:21;0.82;;;0.20;;
13457;SDS011;6801;53.018;11.560;2022-07-23T16:20:50;0.70;;;0.10;;
13457;SDS011;6801;53.018;11.560;2022-07-23T16:23:18;0.55;;;0.20;;
13457;SDS011;6801;53.018;11.560;2022-07-23T16:25:45;0.35;;;0.10;;
13457;SDS011;6801;53.018;11.560;2022-07-23T16:28:12;2.15;;;0.20;;
13457;SDS011;6801;53.018;11.560;2022-07-23T16:30:39;0.90;;;0.30;;
13457;SDS011;6801;53.018;11.560;2022-07-23T16:33:07;1.55;;;0.30;;